sensor_id;sensor_type;location;lat;lon;timestamp;P1;durP1;ratioP1;P2;durP2;ratioP2
69736;SDS011;64476;55.004;73.342;2023-05-14T00:00:39;5.32;;;4.82;;
69736;SDS011;64476;55.004;73.342;2023-05-14T00:07:17;5.97;;;4.53;;
69736;SDS011;64476;55.004;73.342;2023-05-14T00:10:19;10.50;;;5.10;;
69736;SDS011;64476;55.004;73.342;2023-05-14T00:13:21;5.85;;;4.65;;
69736;SDS011;64476;55.004;73.342;2023-05-14T00:16:23;9.27;;;4.80;;
69736;SDS011;64476;55.004;73.342;2023-05-14T00:19:26;5.75;;;4.82;;
69736;SDS011;64476;55.004;73.342;2023-05-14T00:22:28;7.20;;;5.03;;
69736;SDS011;64476;55.004;73.342;2023-05-14T00:25:29;7.28;;;5.13;;
69736;SDS011;64476;55.004;73.342;2023-05-14T00:28:31;6.55;;;5.30;;
69736;SDS011;64476;55.004;73.342;2023-05-14T00:31:33;12.15;;;5.75;;
69736;SDS011;64476;55.004;73.342;2023-05-14T00:34:34;10.37;;;6.00;;
69736;SDS011;64476;55.004;73.342;2023-05-14T00:37:36;7.50;;;5.63;;
69736;SDS011;64476;55.004;73.342;2023-05-14T00:40:38;10.20;;;6.68;;
69736;SDS011;64476;55.004;73.342;2023-05-14T00:43:43;9.65;;;6.20;;
69736;SDS011;64476;55.004;73.342;2023-05-14T00:46:48;9.23;;;5.28;;
69736;SDS011;64476;55.004;73.342;2023-05-14T00:49:49;5.20;;;4.70;;
69736;SDS011;64476;55.004;73.342;2023-05-14T00:52:51;6.13;;;5.05;;
69736;SDS011;64476;55.004;73.342;2023-05-14T00:55:53;5.80;;;4.57;;
69736;SDS011;64476;55.004;73.342;2023-05-14T00:58:55;6.30;;;5.32;;
69736;SDS011;64476;55.004;73.342;2023-05-14T01:01:57;5.85;;;5.28;;
69736;SDS011;64476;55.004;73.342;2023-05-14T01:04:59;6.00;;;5.22;;
69736;SDS011;64476;55.004;73.342;2023-05-14T01:08:12;6.15;;;5.55;;
69736;SDS011;64476;55.004;73.342;2023-05-14T01:11:31;10.07;;;6.65;;
69736;SDS011;64476;55.004;73.342;2023-05-14T01:15:06;9.38;;;7.00;;
69736;SDS011;64476;55.004;73.342;2023-05-14T01:18:42;14.38;;;7.50;;
69736;SDS011;64476;55.004;73.342;2023-05-14T01:21:47;13.87;;;7.27;;
69736;SDS011;64476;55.004;73.342;2023-05-14T01:24:49;13.82;;;8.25;;
69736;SDS011;64476;55.004;73.342;2023-05-14T01:31:26;17.33;;;7.85;;
69736;SDS011;64476;55.004;73.342;2023-05-14T01:35:00;9.07;;;7.07;;
69736;SDS011;64476;55.004;73.342;2023-05-14T01:38:05;10.57;;;7.70;;
69736;SDS011;64476;55.004;73.342;2023-05-14T01:41:10;9.35;;;6.88;;
69736;SDS011;64476;55.004;73.342;2023-05-14T01:44:13;8.10;;;6.85;;
69736;SDS011;64476;55.004;73.342;2023-05-14T01:47:16;11.40;;;7.03;;
69736;SDS011;64476;55.004;73.342;2023-05-14T01:50:17;20.40;;;7.43;;
69736;SDS011;64476;55.004;73.342;2023-05-14T01:53:23;10.88;;;7.32;;
69736;SDS011;64476;55.004;73.342;2023-05-14T01:56:24;14.25;;;7.60;;
69736;SDS011;64476;55.004;73.342;2023-05-14T01:59:27;16.83;;;7.90;;
69736;SDS011;64476;55.004;73.342;2023-05-14T02:02:29;9.50;;;7.13;;
69736;SDS011;64476;55.004;73.342;2023-05-14T02:05:31;7.68;;;6.78;;
69736;SDS011;64476;55.004;73.342;2023-05-14T02:08:33;13.70;;;7.78;;
69736;SDS011;64476;55.004;73.342;2023-05-14T02:11:34;12.40;;;8.23;;
69736;SDS011;64476;55.004;73.342;2023-05-14T02:14:36;10.70;;;7.75;;
69736;SDS011;64476;55.004;73.342;2023-05-14T02:21:13;9.52;;;8.05;;
69736;SDS011;64476;55.004;73.342;2023-05-14T02:24:15;10.20;;;8.10;;
69736;SDS011;64476;55.004;73.342;2023-05-14T02:27:17;16.77;;;7.68;;
69736;SDS011;64476;55.004;73.342;2023-05-14T02:30:20;11.73;;;7.20;;
69736;SDS011;64476;55.004;73.342;2023-05-14T02:33:22;13.68;;;8.05;;
69736;SDS011;64476;55.004;73.342;2023-05-14T02:36:24;9.93;;;8.02;;
69736;SDS011;64476;55.004;73.342;2023-05-14T02:39:26;16.23;;;8.13;;
69736;SDS011;64476;55.004;73.342;2023-05-14T02:42:28;13.02;;;7.88;;
69736;SDS011;64476;55.004;73.342;2023-05-14T02:45:29;11.88;;;8.60;;
69736;SDS011;64476;55.004;73.342;2023-05-14T02:48:31;13.32;;;8.43;;
69736;SDS011;64476;55.004;73.342;2023-05-14T02:51:32;9.20;;;8.25;;
69736;SDS011;64476;55.004;73.342;2023-05-14T02:54:34;14.67;;;9.47;;
69736;SDS011;64476;55.004;73.342;2023-05-14T02:57:36;11.88;;;8.80;;
69736;SDS011;64476;55.004;73.342;2023-05-14T03:00:37;23.13;;;9.65;;
69736;SDS011;64476;55.004;73.342;2023-05-14T03:03:39;12.55;;;9.80;;
69736;SDS011;64476;55.004;73.342;2023-05-14T03:06:41;10.82;;;9.40;;
69736;SDS011;64476;55.004;73.342;2023-05-14T03:09:43;14.20;;;8.30;;
69736;SDS011;64476;55.004;73.342;2023-05-14T03:12:45;22.52;;;12.30;;
69736;SDS011;64476;55.004;73.342;2023-05-14T03:15:55;13.80;;;9.23;;
69736;SDS011;64476;55.004;73.342;2023-05-14T03:18:57;17.38;;;8.90;;
69736;SDS011;64476;55.004;73.342;2023-05-14T03:21:58;18.48;;;14.23;;
69736;SDS011;64476;55.004;73.342;2023-05-14T03:25:00;19.80;;;9.10;;
69736;SDS011;64476;55.004;73.342;2023-05-14T03:28:04;15.07;;;8.55;;
69736;SDS011;64476;55.004;73.342;2023-05-14T03:31:06;11.98;;;8.73;;
69736;SDS011;64476;55.004;73.342;2023-05-14T03:34:07;15.60;;;9.80;;
69736;SDS011;64476;55.004;73.342;2023-05-14T03:37:09;9.60;;;8.32;;
69736;SDS011;64476;55.004;73.342;2023-05-14T03:40:11;11.82;;;8.35;;
69736;SDS011;64476;55.004;73.342;2023-05-14T03:43:13;11.70;;;7.90;;
69736;SDS011;64476;55.004;73.342;2023-05-14T03:46:15;13.43;;;8.68;;
69736;SDS011;64476;55.004;73.342;2023-05-14T03:49:26;13.60;;;7.97;;
69736;SDS011;64476;55.004;73.342;2023-05-14T03:52:29;11.93;;;8.60;;
69736;SDS011;64476;55.004;73.342;2023-05-14T03:59:04;11.07;;;8.82;;
69736;SDS011;64476;55.004;73.342;2023-05-14T04:02:06;14.57;;;9.07;;
69736;SDS011;64476;55.004;73.342;2023-05-14T04:05:39;15.68;;;10.20;;
69736;SDS011;64476;55.004;73.342;2023-05-14T04:08:41;9.95;;;8.30;;
69736;SDS011;64476;55.004;73.342;2023-05-14T04:12:15;11.98;;;7.55;;
69736;SDS011;64476;55.004;73.342;2023-05-14T04:15:17;8.30;;;7.50;;
69736;SDS011;64476;55.004;73.342;2023-05-14T04:21:52;13.68;;;8.70;;
69736;SDS011;64476;55.004;73.342;2023-05-14T04:24:53;12.20;;;7.30;;
69736;SDS011;64476;55.004;73.342;2023-05-14T04:27:55;12.00;;;7.38;;
69736;SDS011;64476;55.004;73.342;2023-05-14T04:30:56;9.50;;;7.18;;
69736;SDS011;64476;55.004;73.342;2023-05-14T04:33:58;8.23;;;6.30;;
69736;SDS011;64476;55.004;73.342;2023-05-14T04:37:00;10.57;;;6.70;;
69736;SDS011;64476;55.004;73.342;2023-05-14T04:40:04;7.60;;;6.47;;
69736;SDS011;64476;55.004;73.342;2023-05-14T04:43:06;12.10;;;6.78;;
69736;SDS011;64476;55.004;73.342;2023-05-14T04:46:08;10.25;;;6.22;;
69736;SDS011;64476;55.004;73.342;2023-05-14T04:49:10;10.13;;;6.30;;
69736;SDS011;64476;55.004;73.342;2023-05-14T04:52:11;7.30;;;6.15;;
69736;SDS011;64476;55.004;73.342;2023-05-14T04:55:13;11.23;;;6.72;;
69736;SDS011;64476;55.004;73.342;2023-05-14T04:58:15;16.80;;;6.63;;
69736;SDS011;64476;55.004;73.342;2023-05-14T05:01:16;9.35;;;6.32;;
69736;SDS011;64476;55.004;73.342;2023-05-14T05:04:29;11.73;;;6.50;;
69736;SDS011;64476;55.004;73.342;2023-05-14T05:07:31;20.08;;;6.47;;
69736;SDS011;64476;55.004;73.342;2023-05-14T05:10:32;10.15;;;6.53;;
69736;SDS011;64476;55.004;73.342;2023-05-14T05:13:35;8.27;;;5.88;;
69736;SDS011;64476;55.004;73.342;2023-05-14T05:16:37;17.10;;;6.63;;
69736;SDS011;64476;55.004;73.342;2023-05-14T05:19:38;6.63;;;5.97;;
69736;SDS011;64476;55.004;73.342;2023-05-14T05:22:40;17.08;;;5.68;;
69736;SDS011;64476;55.004;73.342;2023-05-14T05:25:41;16.85;;;6.53;;
69736;SDS011;64476;55.004;73.342;2023-05-14T05:28:43;11.73;;;6.95;;
69736;SDS011;64476;55.004;73.342;2023-05-14T05:31:45;9.55;;;6.50;;
69736;SDS011;64476;55.004;73.342;2023-05-14T05:34:48;14.63;;;6.68;;
69736;SDS011;64476;55.004;73.342;2023-05-14T05:37:51;21.30;;;8.07;;
69736;SDS011;64476;55.004;73.342;2023-05-14T05:40:53;8.95;;;6.57;;
69736;SDS011;64476;55.004;73.342;2023-05-14T05:43:55;14.35;;;7.10;;
69736;SDS011;64476;55.004;73.342;2023-05-14T05:46:56;18.52;;;7.00;;
69736;SDS011;64476;55.004;73.342;2023-05-14T05:49:58;6.70;;;5.15;;
69736;SDS011;64476;55.004;73.342;2023-05-14T05:53:00;8.55;;;5.30;;
69736;SDS011;64476;55.004;73.342;2023-05-14T05:56:04;12.15;;;5.45;;
69736;SDS011;64476;55.004;73.342;2023-05-14T05:59:06;13.50;;;5.63;;
69736;SDS011;64476;55.004;73.342;2023-05-14T06:02:08;17.50;;;6.03;;
69736;SDS011;64476;55.004;73.342;2023-05-14T06:05:09;15.18;;;6.00;;
69736;SDS011;64476;55.004;73.342;2023-05-14T06:08:11;14.20;;;5.75;;
69736;SDS011;64476;55.004;73.342;2023-05-14T06:11:13;14.30;;;5.43;;
69736;SDS011;64476;55.004;73.342;2023-05-14T06:14:26;15.43;;;5.38;;
69736;SDS011;64476;55.004;73.342;2023-05-14T06:17:27;19.30;;;5.95;;
69736;SDS011;64476;55.004;73.342;2023-05-14T06:20:29;9.77;;;4.90;;
69736;SDS011;64476;55.004;73.342;2023-05-14T06:23:31;12.48;;;4.85;;
69736;SDS011;64476;55.004;73.342;2023-05-14T06:26:33;35.65;;;6.93;;
69736;SDS011;64476;55.004;73.342;2023-05-14T06:29:34;39.37;;;6.47;;
69736;SDS011;64476;55.004;73.342;2023-05-14T06:32:36;24.02;;;7.47;;
69736;SDS011;64476;55.004;73.342;2023-05-14T06:35:38;30.60;;;7.20;;
69736;SDS011;64476;55.004;73.342;2023-05-14T06:38:39;26.67;;;7.53;;
69736;SDS011;64476;55.004;73.342;2023-05-14T06:41:41;20.15;;;6.72;;
69736;SDS011;64476;55.004;73.342;2023-05-14T06:44:48;22.60;;;6.30;;
69736;SDS011;64476;55.004;73.342;2023-05-14T06:47:50;10.10;;;5.75;;
69736;SDS011;64476;55.004;73.342;2023-05-14T06:50:51;21.83;;;6.93;;
69736;SDS011;64476;55.004;73.342;2023-05-14T06:53:54;21.63;;;5.95;;
69736;SDS011;64476;55.004;73.342;2023-05-14T06:57:00;11.83;;;5.63;;
69736;SDS011;64476;55.004;73.342;2023-05-14T07:00:01;24.60;;;5.35;;
69736;SDS011;64476;55.004;73.342;2023-05-14T07:03:05;16.13;;;5.80;;
69736;SDS011;64476;55.004;73.342;2023-05-14T07:06:07;11.33;;;5.23;;
69736;SDS011;64476;55.004;73.342;2023-05-14T07:09:08;49.13;;;5.63;;
69736;SDS011;64476;55.004;73.342;2023-05-14T07:12:10;43.40;;;6.28;;
69736;SDS011;64476;55.004;73.342;2023-05-14T07:15:18;19.40;;;5.78;;
69736;SDS011;64476;55.004;73.342;2023-05-14T07:18:21;16.02;;;5.20;;
69736;SDS011;64476;55.004;73.342;2023-05-14T07:21:24;23.83;;;5.80;;
69736;SDS011;64476;55.004;73.342;2023-05-14T07:24:26;12.63;;;5.75;;
69736;SDS011;64476;55.004;73.342;2023-05-14T07:27:29;12.02;;;6.53;;
69736;SDS011;64476;55.004;73.342;2023-05-14T07:30:31;10.05;;;6.70;;
69736;SDS011;64476;55.004;73.342;2023-05-14T07:33:33;9.30;;;6.40;;
69736;SDS011;64476;55.004;73.342;2023-05-14T07:36:36;20.87;;;7.80;;
69736;SDS011;64476;55.004;73.342;2023-05-14T07:39:38;15.10;;;7.97;;
69736;SDS011;64476;55.004;73.342;2023-05-14T07:42:41;19.02;;;7.63;;
69736;SDS011;64476;55.004;73.342;2023-05-14T07:45:43;18.63;;;8.17;;
69736;SDS011;64476;55.004;73.342;2023-05-14T07:48:45;18.58;;;9.10;;
69736;SDS011;64476;55.004;73.342;2023-05-14T07:51:46;16.40;;;9.40;;
69736;SDS011;64476;55.004;73.342;2023-05-14T07:54:52;18.20;;;9.95;;
69736;SDS011;64476;55.004;73.342;2023-05-14T07:57:54;43.88;;;9.82;;
69736;SDS011;64476;55.004;73.342;2023-05-14T08:00:56;40.47;;;9.40;;
69736;SDS011;64476;55.004;73.342;2023-05-14T08:03:57;17.48;;;9.27;;
69736;SDS011;64476;55.004;73.342;2023-05-14T08:06:59;19.98;;;9.30;;
69736;SDS011;64476;55.004;73.342;2023-05-14T08:10:01;15.23;;;7.82;;
69736;SDS011;64476;55.004;73.342;2023-05-14T08:13:04;18.33;;;8.20;;
69736;SDS011;64476;55.004;73.342;2023-05-14T08:16:06;10.50;;;7.20;;
69736;SDS011;64476;55.004;73.342;2023-05-14T08:19:08;21.08;;;7.40;;
69736;SDS011;64476;55.004;73.342;2023-05-14T08:22:11;15.97;;;7.10;;
69736;SDS011;64476;55.004;73.342;2023-05-14T08:25:13;19.40;;;7.90;;
69736;SDS011;64476;55.004;73.342;2023-05-14T08:28:14;18.58;;;6.75;;
69736;SDS011;64476;55.004;73.342;2023-05-14T08:31:16;17.13;;;7.63;;
69736;SDS011;64476;55.004;73.342;2023-05-14T08:34:26;16.51;;;7.99;;
69736;SDS011;64476;55.004;73.342;2023-05-14T08:37:34;14.00;;;7.68;;
69736;SDS011;64476;55.004;73.342;2023-05-14T08:40:36;21.08;;;6.60;;
69736;SDS011;64476;55.004;73.342;2023-05-14T08:46:49;10.90;;;5.85;;
69736;SDS011;64476;55.004;73.342;2023-05-14T08:49:58;16.47;;;6.23;;
69736;SDS011;64476;55.004;73.342;2023-05-14T08:53:04;14.50;;;5.97;;
69736;SDS011;64476;55.004;73.342;2023-05-14T08:56:07;14.93;;;5.95;;
69736;SDS011;64476;55.004;73.342;2023-05-14T08:59:09;9.93;;;5.45;;
69736;SDS011;64476;55.004;73.342;2023-05-14T09:02:11;12.38;;;4.85;;
69736;SDS011;64476;55.004;73.342;2023-05-14T09:05:16;6.72;;;4.70;;
69736;SDS011;64476;55.004;73.342;2023-05-14T09:08:19;12.68;;;4.03;;
69736;SDS011;64476;55.004;73.342;2023-05-14T09:11:21;11.90;;;4.40;;
69736;SDS011;64476;55.004;73.342;2023-05-14T09:14:26;7.50;;;4.30;;
69736;SDS011;64476;55.004;73.342;2023-05-14T09:17:27;8.70;;;4.47;;
69736;SDS011;64476;55.004;73.342;2023-05-14T09:20:29;7.55;;;3.70;;
69736;SDS011;64476;55.004;73.342;2023-05-14T09:23:32;10.27;;;3.83;;
69736;SDS011;64476;55.004;73.342;2023-05-14T09:26:34;16.15;;;4.15;;
69736;SDS011;64476;55.004;73.342;2023-05-14T09:29:36;19.65;;;3.80;;
69736;SDS011;64476;55.004;73.342;2023-05-14T09:32:38;21.88;;;4.13;;
69736;SDS011;64476;55.004;73.342;2023-05-14T09:35:45;8.13;;;4.25;;
69736;SDS011;64476;55.004;73.342;2023-05-14T09:38:48;8.85;;;4.80;;
69736;SDS011;64476;55.004;73.342;2023-05-14T09:41:57;13.52;;;4.45;;
69736;SDS011;64476;55.004;73.342;2023-05-14T09:44:59;16.50;;;4.70;;
69736;SDS011;64476;55.004;73.342;2023-05-14T09:48:01;3.90;;;3.47;;
69736;SDS011;64476;55.004;73.342;2023-05-14T09:51:03;5.68;;;3.83;;
69736;SDS011;64476;55.004;73.342;2023-05-14T09:54:05;11.85;;;4.22;;
69736;SDS011;64476;55.004;73.342;2023-05-14T09:57:08;11.02;;;4.18;;
69736;SDS011;64476;55.004;73.342;2023-05-14T10:00:10;8.90;;;4.15;;
69736;SDS011;64476;55.004;73.342;2023-05-14T10:03:13;4.82;;;4.00;;
69736;SDS011;64476;55.004;73.342;2023-05-14T10:06:46;4.57;;;4.00;;
69736;SDS011;64476;55.004;73.342;2023-05-14T10:09:53;9.10;;;3.90;;
69736;SDS011;64476;55.004;73.342;2023-05-14T10:13:03;14.85;;;4.13;;
69736;SDS011;64476;55.004;73.342;2023-05-14T10:16:12;4.90;;;3.60;;
69736;SDS011;64476;55.004;73.342;2023-05-14T10:19:26;8.79;;;4.09;;
69736;SDS011;64476;55.004;73.342;2023-05-14T10:22:38;17.23;;;3.92;;
69736;SDS011;64476;55.004;73.342;2023-05-14T10:25:40;21.52;;;3.88;;
69736;SDS011;64476;55.004;73.342;2023-05-14T10:28:42;10.85;;;3.95;;
69736;SDS011;64476;55.004;73.342;2023-05-14T10:31:54;16.27;;;4.75;;
69736;SDS011;64476;55.004;73.342;2023-05-14T10:34:55;10.43;;;4.22;;
69736;SDS011;64476;55.004;73.342;2023-05-14T10:37:58;11.80;;;4.70;;
69736;SDS011;64476;55.004;73.342;2023-05-14T10:41:01;6.93;;;4.13;;
69736;SDS011;64476;55.004;73.342;2023-05-14T10:44:09;8.80;;;4.22;;
69736;SDS011;64476;55.004;73.342;2023-05-14T10:47:12;15.68;;;4.18;;
69736;SDS011;64476;55.004;73.342;2023-05-14T10:53:17;15.95;;;3.83;;
69736;SDS011;64476;55.004;73.342;2023-05-14T10:56:19;5.15;;;3.90;;
69736;SDS011;64476;55.004;73.342;2023-05-14T10:59:26;12.98;;;3.95;;
69736;SDS011;64476;55.004;73.342;2023-05-14T11:05:33;12.88;;;3.35;;
69736;SDS011;64476;55.004;73.342;2023-05-14T11:08:37;13.70;;;3.80;;
69736;SDS011;64476;55.004;73.342;2023-05-14T11:11:39;19.38;;;3.42;;
69736;SDS011;64476;55.004;73.342;2023-05-14T11:14:41;6.80;;;2.92;;
69736;SDS011;64476;55.004;73.342;2023-05-14T11:17:44;7.32;;;2.67;;
69736;SDS011;64476;55.004;73.342;2023-05-14T11:20:47;4.63;;;3.17;;
69736;SDS011;64476;55.004;73.342;2023-05-14T11:23:48;3.42;;;2.40;;
69736;SDS011;64476;55.004;73.342;2023-05-14T11:26:50;4.93;;;2.50;;
69736;SDS011;64476;55.004;73.342;2023-05-14T11:29:56;8.02;;;2.67;;
69736;SDS011;64476;55.004;73.342;2023-05-14T11:32:58;12.85;;;2.83;;
69736;SDS011;64476;55.004;73.342;2023-05-14T11:36:00;4.75;;;2.90;;
69736;SDS011;64476;55.004;73.342;2023-05-14T11:39:02;13.52;;;3.10;;
69736;SDS011;64476;55.004;73.342;2023-05-14T11:42:04;5.47;;;2.83;;
69736;SDS011;64476;55.004;73.342;2023-05-14T11:45:12;10.30;;;2.70;;
69736;SDS011;64476;55.004;73.342;2023-05-14T11:48:14;8.75;;;2.42;;
69736;SDS011;64476;55.004;73.342;2023-05-14T11:51:16;18.40;;;5.15;;
69736;SDS011;64476;55.004;73.342;2023-05-14T11:54:26;18.25;;;4.01;;
69736;SDS011;64476;55.004;73.342;2023-05-14T11:57:29;5.07;;;2.80;;
69736;SDS011;64476;55.004;73.342;2023-05-14T12:00:32;6.82;;;3.00;;
69736;SDS011;64476;55.004;73.342;2023-05-14T12:03:34;8.77;;;2.90;;
69736;SDS011;64476;55.004;73.342;2023-05-14T12:06:35;5.60;;;2.70;;
69736;SDS011;64476;55.004;73.342;2023-05-14T12:09:40;32.20;;;5.13;;
69736;SDS011;64476;55.004;73.342;2023-05-14T12:12:48;10.52;;;3.50;;
69736;SDS011;64476;55.004;73.342;2023-05-14T12:15:54;10.35;;;3.13;;
69736;SDS011;64476;55.004;73.342;2023-05-14T12:19:00;6.68;;;3.80;;
69736;SDS011;64476;55.004;73.342;2023-05-14T12:22:04;10.57;;;3.40;;
69736;SDS011;64476;55.004;73.342;2023-05-14T12:25:09;35.33;;;5.85;;
69736;SDS011;64476;55.004;73.342;2023-05-14T12:28:16;11.90;;;4.22;;
69736;SDS011;64476;55.004;73.342;2023-05-14T12:31:26;21.53;;;5.37;;
69736;SDS011;64476;55.004;73.342;2023-05-14T12:34:53;9.95;;;4.50;;
69736;SDS011;64476;55.004;73.342;2023-05-14T12:37:55;20.40;;;6.30;;
69736;SDS011;64476;55.004;73.342;2023-05-14T12:40:56;43.83;;;6.70;;
69736;SDS011;64476;55.004;73.342;2023-05-14T12:43:58;16.60;;;7.47;;
69736;SDS011;64476;55.004;73.342;2023-05-14T12:47:00;25.70;;;5.55;;
69736;SDS011;64476;55.004;73.342;2023-05-14T12:50:02;14.70;;;5.00;;
69736;SDS011;64476;55.004;73.342;2023-05-14T12:53:05;15.05;;;6.95;;
69736;SDS011;64476;55.004;73.342;2023-05-14T12:56:07;34.85;;;7.78;;
69736;SDS011;64476;55.004;73.342;2023-05-14T12:59:09;26.58;;;6.40;;
69736;SDS011;64476;55.004;73.342;2023-05-14T13:02:10;9.15;;;4.13;;
69736;SDS011;64476;55.004;73.342;2023-05-14T13:05:14;4.25;;;3.85;;
69736;SDS011;64476;55.004;73.342;2023-05-14T13:08:15;17.23;;;3.20;;
69736;SDS011;64476;55.004;73.342;2023-05-14T13:11:18;7.67;;;3.73;;
69736;SDS011;64476;55.004;73.342;2023-05-14T13:14:26;5.12;;;2.54;;
69736;SDS011;64476;55.004;73.342;2023-05-14T13:17:27;4.25;;;2.53;;
69736;SDS011;64476;55.004;73.342;2023-05-14T13:20:29;7.18;;;2.72;;
69736;SDS011;64476;55.004;73.342;2023-05-14T13:23:31;4.45;;;2.75;;
69736;SDS011;64476;55.004;73.342;2023-05-14T13:26:32;11.43;;;2.90;;
69736;SDS011;64476;55.004;73.342;2023-05-14T13:29:34;20.70;;;3.57;;
69736;SDS011;64476;55.004;73.342;2023-05-14T13:32:38;3.95;;;2.50;;
69736;SDS011;64476;55.004;73.342;2023-05-14T13:35:40;5.35;;;2.83;;
69736;SDS011;64476;55.004;73.342;2023-05-14T13:38:42;3.95;;;3.15;;
69736;SDS011;64476;55.004;73.342;2023-05-14T13:41:45;10.98;;;2.75;;
69736;SDS011;64476;55.004;73.342;2023-05-14T13:44:47;19.80;;;2.95;;
69736;SDS011;64476;55.004;73.342;2023-05-14T13:47:49;4.57;;;3.10;;
69736;SDS011;64476;55.004;73.342;2023-05-14T13:50:51;5.43;;;2.30;;
69736;SDS011;64476;55.004;73.342;2023-05-14T13:54:01;11.45;;;2.83;;
69736;SDS011;64476;55.004;73.342;2023-05-14T13:57:09;8.63;;;2.42;;
69736;SDS011;64476;55.004;73.342;2023-05-14T14:00:11;9.55;;;3.22;;
69736;SDS011;64476;55.004;73.342;2023-05-14T14:03:13;8.07;;;3.70;;
69736;SDS011;64476;55.004;73.342;2023-05-14T14:06:15;15.63;;;2.72;;
69736;SDS011;64476;55.004;73.342;2023-05-14T14:09:29;10.04;;;2.78;;
69736;SDS011;64476;55.004;73.342;2023-05-14T14:12:34;6.93;;;3.10;;
69736;SDS011;64476;55.004;73.342;2023-05-14T14:15:37;12.30;;;3.77;;
69736;SDS011;64476;55.004;73.342;2023-05-14T14:18:38;11.82;;;3.45;;
69736;SDS011;64476;55.004;73.342;2023-05-14T14:21:42;7.43;;;3.27;;
69736;SDS011;64476;55.004;73.342;2023-05-14T14:24:48;32.03;;;4.70;;
69736;SDS011;64476;55.004;73.342;2023-05-14T14:27:49;21.17;;;4.20;;
69736;SDS011;64476;55.004;73.342;2023-05-14T14:30:51;24.75;;;4.40;;
69736;SDS011;64476;55.004;73.342;2023-05-14T14:33:52;8.75;;;4.53;;
69736;SDS011;64476;55.004;73.342;2023-05-14T14:36:54;17.23;;;4.68;;
69736;SDS011;64476;55.004;73.342;2023-05-14T14:39:59;16.15;;;4.25;;
69736;SDS011;64476;55.004;73.342;2023-05-14T14:43:36;13.95;;;3.53;;
69736;SDS011;64476;55.004;73.342;2023-05-14T14:50:12;19.10;;;4.35;;
69736;SDS011;64476;55.004;73.342;2023-05-14T14:53:13;26.98;;;4.22;;
69736;SDS011;64476;55.004;73.342;2023-05-14T14:56:16;48.83;;;5.30;;
69736;SDS011;64476;55.004;73.342;2023-05-14T14:59:25;17.30;;;4.21;;
69736;SDS011;64476;55.004;73.342;2023-05-14T15:02:27;24.02;;;5.07;;
69736;SDS011;64476;55.004;73.342;2023-05-14T15:05:29;14.50;;;4.60;;
69736;SDS011;64476;55.004;73.342;2023-05-14T15:08:30;41.53;;;6.57;;
69736;SDS011;64476;55.004;73.342;2023-05-14T15:11:32;23.65;;;5.40;;
69736;SDS011;64476;55.004;73.342;2023-05-14T15:14:34;21.97;;;4.47;;
69736;SDS011;64476;55.004;73.342;2023-05-14T15:17:35;15.05;;;4.35;;
69736;SDS011;64476;55.004;73.342;2023-05-14T15:20:37;21.83;;;5.25;;
69736;SDS011;64476;55.004;73.342;2023-05-14T15:23:39;9.23;;;4.68;;
69736;SDS011;64476;55.004;73.342;2023-05-14T15:26:41;12.32;;;5.10;;
69736;SDS011;64476;55.004;73.342;2023-05-14T15:29:43;24.27;;;5.63;;
69736;SDS011;64476;55.004;73.342;2023-05-14T15:32:44;26.25;;;6.13;;
69736;SDS011;64476;55.004;73.342;2023-05-14T15:35:46;23.63;;;6.65;;
69736;SDS011;64476;55.004;73.342;2023-05-14T15:38:48;44.65;;;6.50;;
69736;SDS011;64476;55.004;73.342;2023-05-14T15:41:50;27.98;;;7.40;;
69736;SDS011;64476;55.004;73.342;2023-05-14T15:44:51;34.73;;;8.97;;
69736;SDS011;64476;55.004;73.342;2023-05-14T15:47:55;60.35;;;9.95;;
69736;SDS011;64476;55.004;73.342;2023-05-14T15:50:57;45.63;;;8.50;;
69736;SDS011;64476;55.004;73.342;2023-05-14T15:53:59;55.28;;;9.98;;
69736;SDS011;64476;55.004;73.342;2023-05-14T15:57:00;63.00;;;10.43;;
69736;SDS011;64476;55.004;73.342;2023-05-14T16:00:02;48.40;;;10.20;;
69736;SDS011;64476;55.004;73.342;2023-05-14T16:03:13;88.22;;;13.88;;
69736;SDS011;64476;55.004;73.342;2023-05-14T16:06:15;51.50;;;14.30;;
69736;SDS011;64476;55.004;73.342;2023-05-14T16:09:25;51.60;;;16.68;;
69736;SDS011;64476;55.004;73.342;2023-05-14T16:12:27;55.00;;;20.15;;
69736;SDS011;64476;55.004;73.342;2023-05-14T16:15:29;57.33;;;19.48;;
69736;SDS011;64476;55.004;73.342;2023-05-14T16:18:31;81.90;;;21.77;;
69736;SDS011;64476;55.004;73.342;2023-05-14T16:21:33;81.70;;;19.88;;
69736;SDS011;64476;55.004;73.342;2023-05-14T16:24:35;56.50;;;17.10;;
69736;SDS011;64476;55.004;73.342;2023-05-14T16:27:36;72.22;;;18.60;;
69736;SDS011;64476;55.004;73.342;2023-05-14T16:30:38;80.72;;;20.00;;
69736;SDS011;64476;55.004;73.342;2023-05-14T16:33:40;81.22;;;25.60;;
69736;SDS011;64476;55.004;73.342;2023-05-14T16:37:17;80.97;;;36.97;;
69736;SDS011;64476;55.004;73.342;2023-05-14T16:40:26;93.28;;;38.05;;
69736;SDS011;64476;55.004;73.342;2023-05-14T16:43:33;108.15;;;46.15;;
69736;SDS011;64476;55.004;73.342;2023-05-14T16:46:34;81.40;;;38.17;;
69736;SDS011;64476;55.004;73.342;2023-05-14T16:49:36;79.72;;;34.30;;
69736;SDS011;64476;55.004;73.342;2023-05-14T16:52:38;84.43;;;31.58;;
69736;SDS011;64476;55.004;73.342;2023-05-14T16:55:39;92.53;;;30.23;;
69736;SDS011;64476;55.004;73.342;2023-05-14T16:58:41;82.72;;;28.73;;
69736;SDS011;64476;55.004;73.342;2023-05-14T17:01:45;71.80;;;27.98;;
69736;SDS011;64476;55.004;73.342;2023-05-14T17:04:48;87.47;;;28.33;;
69736;SDS011;64476;55.004;73.342;2023-05-14T17:07:50;58.53;;;26.05;;
69736;SDS011;64476;55.004;73.342;2023-05-14T17:10:51;63.05;;;26.60;;
69736;SDS011;64476;55.004;73.342;2023-05-14T17:13:53;55.10;;;24.70;;
69736;SDS011;64476;55.004;73.342;2023-05-14T17:16:55;47.95;;;22.65;;
69736;SDS011;64476;55.004;73.342;2023-05-14T17:19:56;71.13;;;22.83;;
69736;SDS011;64476;55.004;73.342;2023-05-14T17:22:58;52.75;;;20.83;;
69736;SDS011;64476;55.004;73.342;2023-05-14T17:25:59;58.72;;;20.23;;
69736;SDS011;64476;55.004;73.342;2023-05-14T17:29:02;46.97;;;18.75;;
69736;SDS011;64476;55.004;73.342;2023-05-14T17:32:04;46.88;;;19.55;;
69736;SDS011;64476;55.004;73.342;2023-05-14T17:35:07;42.10;;;17.70;;
69736;SDS011;64476;55.004;73.342;2023-05-14T17:38:10;38.53;;;16.25;;
69736;SDS011;64476;55.004;73.342;2023-05-14T17:41:12;28.58;;;14.98;;
69736;SDS011;64476;55.004;73.342;2023-05-14T17:44:14;32.70;;;14.75;;
69736;SDS011;64476;55.004;73.342;2023-05-14T17:47:15;31.52;;;13.35;;
69736;SDS011;64476;55.004;73.342;2023-05-14T17:50:52;29.13;;;14.98;;
69736;SDS011;64476;55.004;73.342;2023-05-14T17:53:53;24.80;;;13.43;;
69736;SDS011;64476;55.004;73.342;2023-05-14T17:56:56;24.27;;;12.82;;
69736;SDS011;64476;55.004;73.342;2023-05-14T17:59:58;42.40;;;12.67;;
69736;SDS011;64476;55.004;73.342;2023-05-14T18:06:33;28.10;;;12.05;;
69736;SDS011;64476;55.004;73.342;2023-05-14T18:09:35;35.90;;;12.50;;
69736;SDS011;64476;55.004;73.342;2023-05-14T18:12:37;27.67;;;14.20;;
69736;SDS011;64476;55.004;73.342;2023-05-14T18:15:39;27.48;;;13.50;;
69736;SDS011;64476;55.004;73.342;2023-05-14T18:18:41;20.20;;;13.93;;
69736;SDS011;64476;55.004;73.342;2023-05-14T18:21:43;28.73;;;13.77;;
69736;SDS011;64476;55.004;73.342;2023-05-14T18:24:46;24.73;;;14.60;;
69736;SDS011;64476;55.004;73.342;2023-05-14T18:28:26;29.02;;;13.75;;
69736;SDS011;64476;55.004;73.342;2023-05-14T18:31:28;27.60;;;15.57;;